Map

Track Data

SID SEASON NUMBER BASIN SUBBASIN NAME ISO_TIME NATURE LAT LON WMO_WIND WMO_PRES WMO_AGENCY TRACK_TYPE DIST2LAND LANDFALL IFLAG USA_AGENCY USA_ATCF_ID USA_LAT USA_LON USA_RECORD USA_STATUS USA_WIND USA_PRES USA_SSHS USA_R34_NE USA_R34_SE USA_R34_SW USA_R34_NW USA_R50_NE USA_R50_SE USA_R50_SW USA_R50_NW USA_R64_NE USA_R64_SE USA_R64_SW USA_R64_NW USA_POCI USA_ROCI USA_RMW USA_EYE TOKYO_LAT TOKYO_LON TOKYO_GRADE TOKYO_WIND TOKYO_PRES TOKYO_R50_DIR TOKYO_R50_LONG TOKYO_R50_SHORT TOKYO_R30_DIR TOKYO_R30_LONG TOKYO_R30_SHORT TOKYO_LAND CMA_LAT CMA_LON CMA_CAT CMA_WIND CMA_PRES HKO_LAT HKO_LON HKO_CAT HKO_WIND HKO_PRES NEWDELHI_LAT NEWDELHI_LON NEWDELHI_GRADE NEWDELHI_WIND NEWDELHI_PRES NEWDELHI_CI NEWDELHI_DP NEWDELHI_POCI REUNION_LAT REUNION_LON REUNION_TYPE REUNION_WIND REUNION_PRES REUNION_TNUM REUNION_CI REUNION_RMW REUNION_R34_NE REUNION_R34_SE REUNION_R34_SW REUNION_R34_NW REUNION_R50_NE REUNION_R50_SE REUNION_R50_SW REUNION_R50_NW REUNION_R64_NE REUNION_R64_SE REUNION_R64_SW REUNION_R64_NW BOM_LAT BOM_LON BOM_TYPE BOM_WIND BOM_PRES BOM_TNUM BOM_CI BOM_RMW BOM_R34_NE BOM_R34_SE BOM_R34_SW BOM_R34_NW BOM_R50_NE BOM_R50_SE BOM_R50_SW BOM_R50_NW BOM_R64_NE BOM_R64_SE BOM_R64_SW BOM_R64_NW BOM_ROCI BOM_POCI BOM_EYE BOM_POS_METHOD BOM_PRES_METHOD NADI_LAT NADI_LON NADI_CAT NADI_WIND NADI_PRES WELLINGTON_LAT WELLINGTON_LON WELLINGTON_WIND WELLINGTON_PRES DS824_LAT DS824_LON DS824_STAGE DS824_WIND DS824_PRES TD9636_LAT TD9636_LON TD9636_STAGE TD9636_WIND TD9636_PRES TD9635_LAT TD9635_LON TD9635_WIND TD9635_PRES TD9635_ROCI NEUMANN_LAT NEUMANN_LON NEUMANN_CLASS NEUMANN_WIND NEUMANN_PRES MLC_LAT MLC_LON MLC_CLASS MLC_WIND MLC_PRES USA_GUST BOM_GUST BOM_GUST_PER REUNION_GUST REUNION_GUST_PER USA_SEAHGT USA_SEARAD_NE USA_SEARAD_SE USA_SEARAD_SW USA_SEARAD_NW STORM_SPEED STORM_DIR
1997225N09186 1997 66 EP CP NOT_NAMED 1997-08-13 00:00:00 NR 9.30000 185.700 spur-merge 2102 2102 O_____________ jtwc_wp WP161997 9.30000 -174.300 15 -1 6 301
1997225N09186 1997 66 EP CP NOT_NAMED 1997-08-13 03:00:00 NR 9.44753 185.453 spur-merge 2110 2110 P_____________ WP161997 9.44753 -174.547 15 -1 6 301
1997225N09186 1997 66 EP CP NOT_NAMED 1997-08-13 06:00:00 NR 9.60000 185.200 spur-merge 2118 2118 O_____________ jtwc_wp WP161997 9.60000 -174.800 15 -1 6 302
1997225N09186 1997 66 EP CP NOT_NAMED 1997-08-13 09:00:00 NR 9.75750 184.942 spur-merge 2128 2128 P_____________ WP161997 9.75750 -175.058 15 -1 6 301
1997225N09186 1997 66 EP CP NOT_NAMED 1997-08-13 12:00:00 NR 9.90000 184.700 spur-merge 2137 2137 O_____________ jtwc_wp WP161997 9.90000 -175.300 15 -1 5 301
1997225N09186 1997 66 EP CP NOT_NAMED 1997-08-13 15:00:00 NR 10.0150 184.500 spur-merge 2146 2146 P_____________ WP161997 10.0150 -175.500 15 -1 4 297
1997225N09186 1997 66 EP CP NOT_NAMED 1997-08-13 18:00:00 NR 10.1000 184.300 spur-merge 2155 2155 O_____________ jtwc_wp WP161997 10.1000 -175.700 15 -1 5 287
1997225N09186 1997 66 EP CP NOT_NAMED 1997-08-13 21:00:00 NR 10.1500 184.057 spur-merge 2172 2172 P_____________ WP161997 10.1500 -175.943 15 -1 5 281
1997225N09186 1997 66 EP CP NOT_NAMED 1997-08-14 00:00:00 NR 10.2000 183.800 spur-merge 2190 2190 O_____________ jtwc_wp WP161997 10.2000 -176.200 15 -1 5 286
1997225N09186 1997 66 EP CP NOT_NAMED 1997-08-14 03:00:00 NR 10.2849 183.565 spur-merge 2201 2201 P_____________ WP161997 10.2849 -176.435 15 -1 5 292
1997225N09186 1997 66 EP CP NOT_NAMED 1997-08-14 06:00:00 NR 10.4000 183.300 spur-merge 2219 2219 O_____________ jtwc_wp WP161997 10.4000 -176.700 15 -1 6 294
1997225N09186 1997 66 EP CP NOT_NAMED 1997-08-14 09:00:00 NR 10.5425 182.965 spur-merge 2239 2239 P_____________ WP161997 10.5425 -177.035 15 -1 8 294
1997225N09186 1997 66 EP CP NOT_NAMED 1997-08-14 12:00:00 NR 10.7000 182.600 spur-merge 2260 2260 O_____________ jtwc_wp WP161997 10.7000 -177.400 15 -1 8 294
1997225N09186 1997 66 EP CP NOT_NAMED 1997-08-14 15:00:00 NR 10.8500 182.250 spur-merge 2289 2283 P_____________ WP161997 10.8500 -177.750 15 -1 8 294
1997225N09186 1997 66 EP CP NOT_NAMED 1997-08-14 18:00:00 NR 11.0000 181.900 spur-merge 2303 2303 O_____________ jtwc_wp WP161997 11.0000 -178.100 15 -1 8 293
1997225N09186 1997 66 EP CP NOT_NAMED 1997-08-14 21:00:00 NR 11.1500 181.535 spur-merge 2327 2327 P_____________ WP161997 11.1500 -178.465 15 -1 8 294
1997225N09186 1997 66 EP CP NOT_NAMED 1997-08-15 00:00:00 NR 11.3000 181.200 spur-merge 2348 2348 O_____________ jtwc_wp WP161997 11.3000 -178.800 15 -1 6 297
1997225N09186 1997 66 EP CP NOT_NAMED 1997-08-15 03:00:00 NR 11.4424 180.950 spur-merge 2369 2363 P_____________ WP161997 11.4424 -179.050 15 -1 6 302
1997225N09186 1997 66 EP CP NOT_NAMED 1997-08-15 06:00:00 NR 11.6000 180.700 spur-merge 2376 2376 O_____________ jtwc_wp WP161997 11.6000 -179.300 15 -1 7 301
1997225N09186 1997 66 EP CP NOT_NAMED 1997-08-15 09:00:00 NR 11.7925 180.365 spur-merge 2392 2392 P_____________ WP161997 11.7925 -179.635 15 -1 8 300
1997225N09186 1997 66 EP CP NOT_NAMED 1997-08-15 12:00:00 NR 12.0000 180.000 spur-merge 2418 2418 O_____________ jtwc_wp WP161997 12.0000 -180.000 15 -1 8 300
1997225N09186 1997 66 WP MM NOT_NAMED 1997-08-15 15:00:00 NR 12.2075 179.635 spur-merge 2445 2439 P_____________ WP161997 12.2075 179.635 15 -1 8 300
1997225N09186 1997 66 WP MM NOT_NAMED 1997-08-15 18:00:00 NR 12.4000 179.300 spur-merge 2462 2462 O_____________ jtwc_wp WP161997 12.4000 179.300 15 -1 7 300
1997225N09186 1997 66 WP MM NOT_NAMED 1997-08-15 21:00:00 NR 12.5499 179.035 spur-merge 2485 2480 P_____________ WP161997 12.5499 179.035 15 -1 6 302
1997225N09186 1997 66 WP MM NOT_NAMED 1997-08-16 00:00:00 NR 12.7000 178.800 spur-merge 2494 2494 O_____________ jtwc_wp WP161997 12.7000 178.800 15 -1 6 306
1997225N09186 1997 66 WP MM NOT_NAMED 1997-08-16 03:00:00 NR 12.8849 178.565 spur-merge 2503 2503 P_____________ WP161997 12.8849 178.565 15 -1 6 309
1997225N09186 1997 66 WP MM NOT_NAMED 1997-08-16 06:00:00 NR 13.1000 178.300 spur-merge 2522 2522 O_____________ jtwc_wp WP161997 13.1000 178.300 15 -1 7 307
1997225N09186 1997 66 WP MM NOT_NAMED 1997-08-16 09:00:00 NR 13.3275 177.972 spur-merge 2542 2542 P_____________ WP161997 13.3275 177.972 15 -1 8 306
1997225N09186 1997 66 WP MM NOT_NAMED 1997-08-16 12:00:00 NR 13.6000 177.600 spur-merge 2567 2567 O_____________ jtwc_wp WP161997 13.6000 177.600 15 -1 10 311
1997225N09186 1997 66 WP MM NOT_NAMED 1997-08-16 15:00:00 NR 13.9498 177.230 spur-merge 2592 2588 P_____________ WP161997 13.9498 177.230 15 -1 10 312
1997225N09186 1997 66 WP MM NOT_NAMED 1997-08-16 18:00:00 NR 14.3000 176.800 spur-merge 2614 2614 O_____________ jtwc_wp WP161997 14.3000 176.800 15 -1 11 304
1997225N09186 1997 66 WP MM NOT_NAMED 1997-08-16 21:00:00 NR 14.5573 176.295 spur-merge 2651 2651 P_____________ WP161997 14.5573 176.295 17 -1 12 295
1997225N09186 1997 66 WP MM NOT_NAMED 1997-08-17 00:00:00 NR 14.8000 175.700 spur-merge 2703 2703 O_____________ jtwc_wp WP161997 14.8000 175.700 20 -1 13 293
1997225N09186 1997 66 WP MM NOT_NAMED 1997-08-17 03:00:00 NR 15.0850 175.022 spur-merge 2762 2762 P_____________ WP161997 15.0850 175.022 20 -1 15 294
1997225N09186 1997 66 WP MM NOT_NAMED 1997-08-17 06:00:00 NR 15.4000 174.300 spur-merge 2821 2821 O_____________ jtwc_wp WP161997 15.4000 174.300 20 -1 15 296
1997225N09186 1997 66 WP MM NOT_NAMED 1997-08-17 09:00:00 NR 15.7499 173.585 spur-merge 2882 2882 P_____________ WP161997 15.7499 173.585 22 -1 15 297
1997225N09186 1997 66 WP MM NOT_NAMED 1997-08-17 12:00:00 NR 16.1000 172.900 spur-merge 2939 2939 O_____________ jtwc_wp WP161997 16.1000 172.900 25 -1 14 298
1997225N09186 1997 66 WP MM NOT_NAMED 1997-08-17 15:00:00 NR 16.4146 172.292 spur-merge 2991 2991 P_____________ WP161997 16.4146 172.292 27 -1 13 298
1997225N09186 1997 66 WP MM NOT_NAMED 1997-08-17 18:00:00 NR 16.7000 171.700 spur-merge 3043 3043 O_____________ jtwc_wp WP161997 16.7000 171.700 30 -1 13 296
1997225N09186 1997 66 WP MM NOT_NAMED 1997-08-17 21:00:00 NR 16.9874 171.050 spur-merge 3062 3053 P_____________ WP161997 16.9874 171.050 30 -1 13 292
1997225N09186 1997 66 WP MM NOT_NAMED 1997-08-18 00:00:00 NR 17.2000 170.400 spur-merge 3053 3021 O_____________ jtwc_wp WP161997 17.2000 170.400 30 -1 13 284
1997225N09186 1997 66 WP MM NOT_NAMED 1997-08-18 03:00:00 NR 17.2949 169.770 spur-merge 3021 2980 P_____________ WP161997 17.2949 169.770 30 -1 12 275
1997225N09186 1997 66 WP MM NOT_NAMED 1997-08-18 06:00:00 NR 17.3000 169.200 spur-merge 2980 2947 O_____________ jtwc_wp WP161997 17.3000 169.200 30 -1 10 270
1997225N09186 1997 66 WP MM NOT_NAMED 1997-08-18 09:00:00 NR 17.2873 168.713 spur-merge 2947 2911 P_____________ WP161997 17.2873 168.713 30 -1 9 263
1997225N09186 1997 66 WP MM NOT_NAMED 1997-08-18 12:00:00 NR 17.2000 168.300 spur-merge 2911 2867 O_____________ jtwc_wp WP161997 17.2000 168.300 30 -1 8 252
1997225N09186 1997 66 WP MM NOT_NAMED 1997-08-18 15:00:00 NR 17.0300 167.905 spur-merge 2867 2830 P_____________ WP161997 17.0251 167.937 27 -1 8 239
1997225N09186 1997 66 WP MM NOT_NAMED 1997-08-18 18:00:00 NR 16.8000 167.600 spur-merge 2830 O_____________ jtwc_wp WP161997 16.8000 167.600 25 -1 7 232

About IBTrACS Database

This database is a web-friendly format of International Best Track Archive for Climate Stewardship (IBTrACS), a global best track data archive curated by NOAA dating back to 1842.

Updated: 2021-12-03